Time;durP1;ratioP1;P1;durP2;ratioP2;P2;SDS_P1;SDS_P2;PMS_P1;PMS_P2;Temp;Humidity;BMP_temperature;BMP_pressure;BME280_temperature;BME280_humidity;BME280_pressure;Samples;Min_cycle;Max_cycle;Signal;HPM_P1;HPM_P2
2021/08/04 00:00:10;;;;;;;0.90;0.90;;;26.60;51.60;;;;;;5027905;28;20051;-67
2021/08/04 00:02:38;;;;;;;0.70;0.70;;;26.60;51.60;;;;;;5027895;28;20053;-68
2021/08/04 00:05:07;;;;;;;0.70;0.70;;;26.60;51.60;;;;;;5027857;28;20052;-67
2021/08/04 00:07:34;;;;;;;0.57;0.57;;;26.60;51.60;;;;;;5027604;28;20095;-68
2021/08/04 00:10:01;;;;;;;0.70;0.70;;;26.60;51.60;;;;;;5027170;28;20088;-68
2021/08/04 00:12:28;;;;;;;0.82;0.82;;;26.60;51.60;;;;;;5026707;28;20052;-67
2021/08/04 00:14:56;;;;;;;0.90;0.90;;;26.60;51.60;;;;;;5027155;28;20053;-68
2021/08/04 00:17:23;;;;;;;0.82;0.82;;;26.60;51.60;;;;;;5025937;28;20127;-67
2021/08/04 00:19:50;;;;;;;1.13;1.13;;;26.60;51.60;;;;;;5023491;28;20124;-67
2021/08/04 00:22:17;;;;;;;0.75;0.75;;;26.60;51.60;;;;;;5027272;28;20045;-67
2021/08/04 00:24:44;;;;;;;0.55;0.55;;;26.60;51.60;;;;;;5027571;28;20053;-67
2021/08/04 00:27:12;;;;;;;1.30;0.90;;;26.50;51.50;;;;;;5027410;28;20096;-67
2021/08/04 00:29:39;;;;;;;1.00;1.00;;;26.60;51.60;;;;;;5027387;28;20077;-67
2021/08/04 00:32:07;;;;;;;0.88;0.88;;;26.60;51.60;;;;;;5027219;28;20077;-67
2021/08/04 00:34:34;;;;;;;0.77;0.77;;;26.60;51.60;;;;;;5027410;28;20045;-67
2021/08/04 00:37:01;;;;;;;0.80;0.80;;;26.60;51.50;;;;;;5026127;28;20136;-67
2021/08/04 00:39:28;;;;;;;0.90;0.90;;;26.50;51.50;;;;;;5026836;28;20570;-67
2021/08/04 00:41:55;;;;;;;0.75;0.75;;;26.50;51.50;;;;;;5025944;28;20053;-67
2021/08/04 00:44:22;;;;;;;0.63;0.63;;;26.50;51.50;;;;;;5027002;28;20482;-67
2021/08/04 00:46:49;;;;;;;0.70;0.70;;;26.50;51.50;;;;;;5026846;28;20053;-68
2021/08/04 00:49:17;;;;;;;1.20;1.17;;;26.50;51.60;;;;;;5027166;28;20045;-67
2021/08/04 00:51:44;;;;;;;1.05;0.80;;;26.50;51.50;;;;;;5027164;28;20136;-68
2021/08/04 00:54:11;;;;;;;0.70;0.70;;;26.50;51.60;;;;;;5027312;28;20057;-67
2021/08/04 00:56:39;;;;;;;0.70;0.70;;;26.50;51.60;;;;;;5026754;28;20443;-67
2021/08/04 00:59:07;;;;;;;1.10;1.00;;;26.50;51.60;;;;;;5027256;28;20050;-67
2021/08/04 01:01:47;;;;;;;0.77;0.77;;;26.50;51.60;;;;;;5026900;28;20089;-68
2021/08/04 01:04:26;;;;;;;1.00;1.00;;;26.50;51.60;;;;;;5026364;28;20407;-68
2021/08/04 01:07:18;;;;;;;0.93;0.93;;;26.50;51.60;;;;;;5026721;28;20561;-67
2021/08/04 01:09:56;;;;;;;1.00;1.00;;;26.40;51.60;;;;;;5025782;28;20518;-67
2021/08/04 01:12:30;;;;;;;0.70;0.70;;;26.50;51.70;;;;;;5027342;28;20045;-67
2021/08/04 01:15:02;;;;;;;0.75;0.75;;;26.50;51.70;;;;;;5027364;28;20048;-68
2021/08/04 01:17:29;;;;;;;0.95;0.95;;;26.50;51.70;;;;;;5026880;28;20046;-67
2021/08/04 01:20:14;;;;;;;0.70;0.70;;;26.40;51.60;;;;;;5026782;28;20529;-68
2021/08/04 01:23:16;;;;;;;0.82;0.80;;;26.50;51.80;;;;;;5026877;28;20128;-68
2021/08/04 01:25:59;;;;;;;0.93;0.77;;;26.50;51.70;;;;;;5026721;28;20045;-68
2021/08/04 01:28:31;;;;;;;0.80;0.80;;;26.40;51.70;;;;;;5026827;28;20121;-67
2021/08/04 01:31:03;;;;;;;1.35;0.90;;;26.40;51.70;;;;;;5026874;28;20696;-68
2021/08/04 01:33:33;;;;;;;1.77;0.68;;;26.40;51.70;;;;;;5025115;28;20081;-68
2021/08/04 01:36:00;;;;;;;1.70;0.90;;;26.40;51.70;;;;;;5026960;28;20067;-67
2021/08/04 01:38:30;;;;;;;0.95;0.70;;;26.40;52.30;;;;;;5026505;28;20041;-67
2021/08/04 01:40:58;;;;;;;0.80;0.80;;;26.40;51.70;;;;;;5026625;28;20089;-68
2021/08/04 01:43:26;;;;;;;0.60;0.60;;;26.40;51.70;;;;;;5026712;28;20081;-67
2021/08/04 01:45:55;;;;;;;0.73;0.73;;;26.40;51.70;;;;;;5026721;28;20453;-68
2021/08/04 01:48:23;;;;;;;1.00;0.95;;;26.40;51.70;;;;;;5028892;28;20467;-67
2021/08/04 01:50:54;;;;;;;0.60;0.60;;;26.40;51.70;;;;;;5029816;28;20129;-67
2021/08/04 01:53:23;;;;;;;0.85;0.80;;;26.40;51.70;;;;;;5030639;28;20461;-67
2021/08/04 01:55:51;;;;;;;0.70;0.70;;;26.40;51.70;;;;;;5029889;28;20084;-67
2021/08/04 01:58:18;;;;;;;0.70;0.70;;;26.50;51.70;;;;;;5029992;28;20050;-67
2021/08/04 02:00:45;;;;;;;1.10;0.95;;;26.40;51.70;;;;;;5030073;28;20050;-67
2021/08/04 02:03:12;;;;;;;0.70;0.70;;;26.40;51.60;;;;;;5029867;28;20049;-67
2021/08/04 02:05:40;;;;;;;0.50;0.50;;;26.40;51.60;;;;;;5029968;28;20053;-67
2021/08/04 02:08:33;;;;;;;1.00;0.90;;;26.40;51.60;;;;;;5029758;28;20136;-67
2021/08/04 02:11:09;;;;;;;0.80;0.80;;;26.40;51.70;;;;;;5029868;28;20538;-67
2021/08/04 02:13:59;;;;;;;0.80;0.80;;;26.40;51.70;;;;;;5029463;28;20137;-67
2021/08/04 02:16:46;;;;;;;0.90;0.90;;;26.40;51.70;;;;;;5029981;28;20136;-67
2021/08/04 02:19:36;;;;;;;0.60;0.60;;;26.40;51.70;;;;;;5029606;28;20136;-67
2021/08/04 02:22:10;;;;;;;0.60;0.60;;;26.40;51.70;;;;;;5029485;28;20137;-68
2021/08/04 02:24:44;;;;;;;0.80;0.80;;;26.40;51.70;;;;;;5029641;28;20141;-67
2021/08/04 02:27:12;;;;;;;0.60;0.60;;;26.40;51.70;;;;;;5029400;28;20183;-68
2021/08/04 02:29:42;;;;;;;0.85;0.85;;;26.40;51.70;;;;;;5029577;28;20048;-67
2021/08/04 02:32:09;;;;;;;;;;;26.40;52.30;;;;;;5029458;28;20519;-67
2021/08/04 02:34:37;;;;;;;0.93;0.80;;;26.40;51.70;;;;;;5029768;28;20346;-67
2021/08/04 02:37:04;;;;;;;0.70;0.70;;;26.40;51.80;;;;;;5029377;28;20085;-67
2021/08/04 02:39:32;;;;;;;0.70;0.70;;;26.40;51.80;;;;;;5028929;28;20080;-67
2021/08/04 02:41:59;;;;;;;0.85;0.85;;;26.40;51.80;;;;;;5029425;28;20478;-68
2021/08/04 02:44:26;;;;;;;0.85;0.77;;;26.40;51.80;;;;;;5028849;28;20050;-67
2021/08/04 02:46:54;;;;;;;0.63;0.63;;;26.40;51.80;;;;;;5029381;28;20053;-68
2021/08/04 02:49:21;;;;;;;0.80;0.80;;;26.40;51.80;;;;;;5028540;28;20418;-68
2021/08/04 02:51:49;;;;;;;0.75;0.75;;;26.40;51.90;;;;;;5029518;28;20046;-67
2021/08/04 02:54:20;;;;;;;1.45;0.88;;;26.40;51.90;;;;;;5029060;28;20077;-68
2021/08/04 02:56:47;;;;;;;0.90;0.90;;;26.40;51.80;;;;;;5029142;28;20081;-67
2021/08/04 02:59:14;;;;;;;0.63;0.63;;;26.40;51.90;;;;;;5027975;28;20133;-67
2021/08/04 03:01:42;;;;;;;0.90;0.90;;;26.40;51.90;;;;;;5029139;28;20084;-67
2021/08/04 03:04:09;;;;;;;0.93;0.60;;;26.40;51.90;;;;;;5028610;28;20049;-67
2021/08/04 03:06:36;;;;;;;1.45;0.80;;;26.40;51.90;;;;;;5028790;28;20471;-67
2021/08/04 03:09:03;;;;;;;0.88;0.85;;;26.30;51.80;;;;;;5028735;28;20128;-67
2021/08/04 03:11:31;;;;;;;1.08;0.90;;;26.30;51.80;;;;;;5029037;28;20073;-67
2021/08/04 03:13:58;;;;;;;1.40;1.00;;;26.40;51.90;;;;;;5026844;28;20053;-68
2021/08/04 03:16:25;;;;;;;1.15;0.80;;;26.30;51.80;;;;;;5028647;28;20457;-68
2021/08/04 03:18:52;;;;;;;1.05;0.95;;;26.40;51.90;;;;;;5028372;28;20438;-67
2021/08/04 03:21:19;;;;;;;0.70;0.70;;;26.40;51.90;;;;;;5028568;28;20475;-67
2021/08/04 03:23:47;;;;;;;0.85;0.60;;;26.40;51.80;;;;;;5027968;28;20121;-67
2021/08/04 03:26:14;;;;;;;0.77;0.77;;;26.40;51.80;;;;;;5028460;28;20707;-67
2021/08/04 03:28:41;;;;;;;2.42;1.08;;;26.40;51.80;;;;;;5028062;28;20505;-67
2021/08/04 03:31:08;;;;;;;0.80;0.80;;;26.40;51.80;;;;;;5027180;28;20099;-67
2021/08/04 03:33:36;;;;;;;0.82;0.75;;;26.40;51.80;;;;;;5026856;28;20057;-67
2021/08/04 03:36:03;;;;;;;2.45;1.15;;;26.40;51.80;;;;;;5028376;28;20046;-68
2021/08/04 03:38:31;;;;;;;0.60;0.60;;;26.40;51.80;;;;;;5028025;28;20056;-67
2021/08/04 03:40:58;;;;;;;1.08;1.02;;;26.40;51.80;;;;;;5024623;28;20046;-67
2021/08/04 03:43:25;;;;;;;0.95;0.90;;;26.30;51.70;;;;;;5027424;28;20565;-67
2021/08/04 03:45:52;;;;;;;0.80;0.80;;;26.30;51.70;;;;;;5027470;28;20610;-67
2021/08/04 03:48:20;;;;;;;0.80;0.80;;;26.30;51.70;;;;;;5028344;28;20056;-68
2021/08/04 03:50:47;;;;;;;1.08;0.90;;;26.30;51.70;;;;;;5042773;28;20207;-67
2021/08/04 03:53:14;;;;;;;1.15;0.75;;;26.40;51.80;;;;;;5027870;28;20053;-68
2021/08/04 03:55:41;;;;;;;0.95;0.95;;;26.40;51.80;;;;;;5027409;28;20132;-67
2021/08/04 03:58:08;;;;;;;0.90;0.88;;;26.40;51.80;;;;;;5027383;28;20049;-68
2021/08/04 04:00:36;;;;;;;1.48;0.60;;;26.40;51.80;;;;;;5020165;28;20051;-67
2021/08/04 04:03:03;;;;;;;1.42;0.75;;;26.40;51.80;;;;;;5007426;28;20050;-68
2021/08/04 04:05:31;;;;;;;0.77;0.77;;;26.40;51.70;;;;;;5008292;28;20089;-68
2021/08/04 04:07:58;;;;;;;0.68;0.68;;;26.40;51.70;;;;;;5008015;28;20145;-68
2021/08/04 04:10:25;;;;;;;0.73;0.73;;;26.40;51.70;;;;;;5014570;28;20046;-67
2021/08/04 04:12:52;;;;;;;0.95;0.95;;;26.40;51.70;;;;;;5026740;28;20498;-68
2021/08/04 04:15:19;;;;;;;1.00;0.75;;;26.40;51.70;;;;;;5026308;28;20425;-68
2021/08/04 04:17:46;;;;;;;0.90;0.80;;;26.40;51.70;;;;;;5026544;28;20506;-68
2021/08/04 04:20:14;;;;;;;0.80;0.80;;;26.40;51.70;;;;;;5020563;28;20045;-68
2021/08/04 04:22:44;;;;;;;0.88;0.88;;;26.40;51.60;;;;;;5027069;28;20053;-68
2021/08/04 04:25:14;;;;;;;1.30;0.93;;;26.40;51.60;;;;;;5027033;28;20429;-68
2021/08/04 04:27:43;;;;;;;0.80;0.80;;;26.40;51.60;;;;;;5025302;28;20144;-67
2021/08/04 04:30:12;;;;;;;0.90;0.88;;;26.40;51.50;;;;;;5026455;28;20129;-68
2021/08/04 04:32:39;;;;;;;0.88;0.88;;;26.40;51.50;;;;;;5025759;28;20654;-68
2021/08/04 04:35:08;;;;;;;0.90;0.90;;;26.40;51.40;;;;;;5025299;28;20069;-68
2021/08/04 04:37:36;;;;;;;0.90;0.90;;;26.50;51.50;;;;;;5021970;28;20136;-68
2021/08/04 04:40:04;;;;;;;0.80;0.80;;;26.50;51.40;;;;;;5025625;28;20042;-68
2021/08/04 04:42:31;;;;;;;0.80;0.80;;;26.50;51.30;;;;;;5028030;28;20045;-68
2021/08/04 04:44:58;;;;;;;0.93;0.93;;;26.60;51.30;;;;;;5021932;28;20128;-68
2021/08/04 04:47:25;;;;;;;1.20;1.00;;;26.60;51.30;;;;;;5024162;28;20051;-68
2021/08/04 04:49:53;;;;;;;0.90;0.90;;;26.60;51.30;;;;;;5026652;28;20077;-67
2021/08/04 04:52:20;;;;;;;1.35;1.25;;;26.60;51.30;;;;;;5021512;28;20562;-68
2021/08/04 04:54:47;;;;;;;1.33;1.23;;;26.60;51.10;;;;;;5007552;28;20128;-67
2021/08/04 04:57:14;;;;;;;1.00;0.95;;;26.60;51.10;;;;;;5022671;28;20041;-67
2021/08/04 04:59:41;;;;;;;1.05;0.95;;;26.70;51.10;;;;;;5023521;28;20060;-67
2021/08/04 05:02:08;;;;;;;2.00;1.80;;;26.70;51.10;;;;;;5024081;28;20045;-67
2021/08/04 05:04:36;;;;;;;1.30;1.20;;;26.70;51.00;;;;;;5026600;28;20144;-68
2021/08/04 05:07:03;;;;;;;1.58;1.50;;;26.70;51.00;;;;;;5027068;28;20053;-67
2021/08/04 05:09:30;;;;;;;1.90;1.58;;;26.70;51.10;;;;;;5026731;28;20072;-68
2021/08/04 05:11:57;;;;;;;1.77;1.67;;;26.60;51.30;;;;;;5026719;28;20056;-68
2021/08/04 05:14:24;;;;;;;1.50;1.40;;;26.50;51.40;;;;;;5013924;28;20070;-69
2021/08/04 05:16:55;;;;;;;2.10;1.73;;;26.40;51.60;;;;;;5013906;28;20579;-68
2021/08/04 05:19:22;;;;;;;1.63;1.50;;;26.30;52.00;;;;;;5008446;28;20049;-67
2021/08/04 05:21:49;;;;;;;1.73;1.63;;;26.10;52.40;;;;;;5025176;28;20041;-68
2021/08/04 05:26:44;;;;;;;1.60;1.50;;;25.50;54.30;;;;;;5019431;28;20073;-69
2021/08/04 05:29:11;;;;;;;1.90;1.70;;;25.20;55.00;;;;;;5017028;28;20137;-69
2021/08/04 05:31:38;;;;;;;2.03;1.85;;;24.90;55.70;;;;;;5021152;28;20048;-69
2021/08/04 05:34:05;;;;;;;1.80;1.70;;;24.70;56.30;;;;;;5018413;28;20063;-68
2021/08/04 05:36:32;;;;;;;2.30;2.10;;;24.60;56.50;;;;;;5016545;28;20132;-69
2021/08/04 05:39:00;;;;;;;2.45;2.25;;;24.50;56.60;;;;;;5020435;28;20051;-69
2021/08/04 05:41:27;;;;;;;2.42;2.22;;;24.30;56.80;;;;;;5014428;28;20093;-68
2021/08/04 05:43:55;;;;;;;2.08;1.98;;;24.20;57.10;;;;;;5018896;28;20489;-67
2021/08/04 05:46:22;;;;;;;4.35;2.17;;;24.10;57.20;;;;;;5020705;28;20048;-68
2021/08/04 05:48:49;;;;;;;4.70;2.25;;;24.10;57.50;;;;;;5015742;28;20050;-70
2021/08/04 05:51:17;;;;;;;2.85;2.65;;;24.00;57.80;;;;;;5016969;28;20077;-68
2021/08/04 05:53:44;;;;;;;4.53;3.05;;;24.00;57.80;;;;;;5019624;28;20048;-70
2021/08/04 05:56:11;;;;;;;3.78;2.30;;;23.90;58.10;;;;;;5016494;28;20869;-67
2021/08/04 05:58:38;;;;;;;4.05;2.58;;;23.90;58.30;;;;;;5018433;28;20136;-66
2021/08/04 06:01:05;;;;;;;2.90;2.53;;;23.80;58.60;;;;;;5015502;28;20136;-65
2021/08/04 06:03:36;;;;;;;4.32;2.67;;;23.80;58.80;;;;;;5018819;28;20077;-62
2021/08/04 06:06:04;;;;;;;2.78;2.53;;;23.80;59.10;;;;;;5019507;28;20120;-61
2021/08/04 06:08:31;;;;;;;5.40;2.90;;;23.80;59.20;;;;;;5022595;28;20046;-64
2021/08/04 06:10:58;;;;;;;3.08;2.88;;;23.80;59.30;;;;;;5014660;28;20053;-67
2021/08/04 06:13:25;;;;;;;3.88;2.75;;;23.80;59.40;;;;;;5019025;28;20132;-63
2021/08/04 06:15:55;;;;;;;4.63;2.88;;;23.80;59.40;;;;;;5015574;28;20042;-69
2021/08/04 06:18:22;;;;;;;4.05;2.70;;;23.80;59.40;;;;;;5016657;28;20057;-69
2021/08/04 06:20:49;;;;;;;3.03;2.55;;;23.80;59.40;;;;;;5017915;28;20120;-70
2021/08/04 06:23:16;;;;;;;4.45;2.92;;;23.80;59.30;;;;;;5024270;28;20051;-70
2021/08/04 06:25:44;;;;;;;4.18;2.70;;;23.80;59.40;;;;;;5018022;28;20049;-63
2021/08/04 06:28:11;;;;;;;3.80;3.40;;;23.80;59.50;;;;;;5018922;28;20045;-61
2021/08/04 06:30:39;;;;;;;3.15;2.85;;;23.90;59.40;;;;;;5016446;28;20042;-70
2021/08/04 06:33:06;;;;;;;4.30;2.97;;;23.80;59.30;;;;;;5014423;28;20116;-67
2021/08/04 06:35:33;;;;;;;3.85;2.92;;;23.80;59.50;;;;;;5017024;28;20048;-69
2021/08/04 06:38:00;;;;;;;3.30;2.70;;;23.90;58.90;;;;;;5018603;28;20052;-69
2021/08/04 06:40:28;;;;;;;3.95;2.70;;;23.90;58.60;;;;;;5013924;28;20095;-70
2021/08/04 06:42:55;;;;;;;2.83;2.30;;;24.00;58.40;;;;;;5015681;28;20053;-70
2021/08/04 06:45:22;;;;;;;3.33;2.90;;;24.10;58.30;;;;;;5023219;28;20448;-70
2021/08/04 06:47:49;;;;;;;2.80;2.60;;;24.10;58.30;;;;;;5021596;28;20081;-70
2021/08/04 06:50:16;;;;;;;2.90;2.70;;;24.10;58.10;;;;;;5021367;28;20145;-69
2021/08/04 06:52:44;;;;;;;3.63;2.90;;;24.20;57.90;;;;;;5019894;28;20155;-69
2021/08/04 06:55:12;;;;;;;3.08;2.78;;;24.20;57.80;;;;;;5031812;28;20065;-70
2021/08/04 06:57:39;;;;;;;4.13;2.70;;;24.20;57.70;;;;;;5022124;28;20132;-68
2021/08/04 07:00:07;;;;;;;3.05;2.60;;;24.20;57.60;;;;;;5016793;28;20049;-68
2021/08/04 07:02:34;;;;;;;4.70;2.80;;;24.30;57.70;;;;;;5020769;28;20072;-65
2021/08/04 07:05:01;;;;;;;3.00;2.70;;;24.30;57.60;;;;;;5017023;28;20052;-78
2021/08/04 07:07:28;;;;;;;4.22;3.03;;;24.30;57.70;;;;;;5026015;28;20054;-65
2021/08/04 07:09:55;;;;;;;2.63;2.42;;;24.30;57.80;;;;;;5022366;28;20069;-62
2021/08/04 07:12:22;;;;;;;2.85;2.55;;;24.30;58.10;;;;;;5018591;28;20111;-66
2021/08/04 07:14:51;;;;;;;4.78;3.20;;;24.30;58.30;;;;;;5019750;28;20136;-69
2021/08/04 07:17:18;;;;;;;6.50;3.13;;;24.40;58.30;;;;;;5001049;28;20053;-71
2021/08/04 07:19:46;;;;;;;2.80;2.60;;;24.40;58.30;;;;;;5023845;28;20518;-71
2021/08/04 07:22:13;;;;;;;5.28;3.00;;;24.40;58.20;;;;;;5015117;28;20111;-63
2021/08/04 07:24:40;;;;;;;3.30;2.97;;;24.40;58.20;;;;;;5020858;28;20038;-63
2021/08/04 07:27:08;;;;;;;3.45;2.35;;;24.50;58.20;;;;;;5024430;28;20127;-62
2021/08/04 07:29:35;;;;;;;4.75;2.88;;;24.50;58.30;;;;;;5017637;28;20502;-67
2021/08/04 07:32:02;;;;;;;3.70;3.15;;;24.50;58.20;;;;;;5019163;28;20136;-66
2021/08/04 07:34:30;;;;;;;2.90;2.60;;;24.60;58.10;;;;;;5019236;28;20077;-67
2021/08/04 07:36:57;;;;;;;2.97;2.72;;;24.60;58.10;;;;;;5016941;28;20049;-70
2021/08/04 07:39:24;;;;;;;2.78;2.58;;;24.60;58.20;;;;;;5020978;28;20140;-67
2021/08/04 07:41:54;;;;;;;3.53;2.90;;;24.70;58.20;;;;;;5021904;28;20129;-69
2021/08/04 07:44:21;;;;;;;4.80;3.15;;;24.70;58.30;;;;;;5017110;28;20469;-67
2021/08/04 07:46:53;;;;;;;3.58;3.10;;;24.70;58.20;;;;;;5017679;28;20130;-69
2021/08/04 07:49:21;;;;;;;4.10;3.60;;;24.70;58.30;;;;;;5015494;28;21771;-72
2021/08/04 07:51:49;;;;;;;4.75;3.38;;;24.80;58.50;;;;;;5013356;28;20038;-67
2021/08/04 07:54:16;;;;;;;5.13;3.65;;;24.80;58.40;;;;;;5015420;28;20141;-64
2021/08/04 07:56:43;;;;;;;3.50;3.20;;;24.80;58.30;;;;;;5012737;28;20077;-64
2021/08/04 07:59:10;;;;;;;4.43;3.10;;;24.90;58.40;;;;;;5017218;28;20045;-62
2021/08/04 08:01:40;;;;;;;3.15;2.88;;;24.90;58.20;;;;;;5014454;28;20099;-64
2021/08/04 08:04:07;;;;;;;3.88;3.30;;;24.90;58.10;;;;;;5014547;28;20048;-65
2021/08/04 08:06:34;;;;;;;4.50;2.88;;;24.90;58.10;;;;;;5037925;28;20079;-63
2021/08/04 08:09:01;;;;;;;5.63;4.03;;;24.90;58.20;;;;;;5016318;28;20061;-62
2021/08/04 08:11:28;;;;;;;5.20;3.17;;;24.90;58.20;;;;;;5014461;28;20397;-64
2021/08/04 08:13:56;;;;;;;3.25;2.95;;;24.90;58.30;;;;;;5016312;28;20051;-61
2021/08/04 08:16:23;;;;;;;3.00;2.80;;;24.90;58.30;;;;;;5018921;28;20048;-66
2021/08/04 08:18:54;;;;;;;5.78;3.80;;;25.00;58.30;;;;;;5018065;28;20108;-67
2021/08/04 08:21:23;;;;;;;5.50;3.17;;;25.00;58.60;;;;;;5015854;28;20469;-67
2021/08/04 08:23:51;;;;;;;3.20;2.95;;;25.00;58.60;;;;;;5015531;28;20476;-64
2021/08/04 08:26:22;;;;;;;5.60;3.20;;;25.00;58.60;;;;;;5014503;28;20080;-66
2021/08/04 08:28:49;;;;;;;5.00;3.15;;;25.00;58.50;;;;;;5016154;28;20218;-66
2021/08/04 08:31:17;;;;;;;6.93;3.08;;;25.10;58.50;;;;;;5013716;28;20060;-63
2021/08/04 08:33:44;;;;;;;4.63;3.60;;;25.10;58.40;;;;;;5023637;28;20053;-61
2021/08/04 08:36:11;;;;;;;4.38;3.50;;;25.10;58.40;;;;;;5015985;28;20045;-69
2021/08/04 08:38:38;;;;;;;4.10;3.30;;;25.10;58.40;;;;;;5012876;28;20830;-64
2021/08/04 08:41:07;;;;;;;3.80;3.38;;;25.10;58.60;;;;;;5019356;28;20053;-63
2021/08/04 08:43:35;;;;;;;3.33;3.05;;;25.10;58.60;;;;;;5019659;28;20056;-62
2021/08/04 08:46:03;;;;;;;3.63;3.30;;;25.10;58.50;;;;;;5017909;28;20497;-62
2021/08/04 08:48:31;;;;;;;7.03;3.28;;;25.10;58.40;;;;;;5017805;28;20440;-63
2021/08/04 08:50:58;;;;;;;6.72;3.55;;;25.10;58.30;;;;;;5021137;28;20073;-62
2021/08/04 08:53:25;;;;;;;4.07;3.15;;;25.10;58.20;;;;;;5014394;28;20096;-64
2021/08/04 08:55:53;;;;;;;4.65;3.28;;;25.10;58.20;;;;;;5014477;28;20044;-62
2021/08/04 08:58:21;;;;;;;3.28;2.80;;;25.10;58.30;;;;;;5017385;28;20050;-68
2021/08/04 09:00:48;;;;;;;3.65;3.15;;;25.10;58.30;;;;;;5017955;28;20601;-69
2021/08/04 09:03:19;;;;;;;3.15;2.67;;;25.10;58.40;;;;;;5022822;28;20140;-64
2021/08/04 09:05:51;;;;;;;4.30;3.00;;;25.10;58.50;;;;;;5014791;28;20045;-67
2021/08/04 09:08:28;;;;;;;6.05;3.10;;;25.10;58.50;;;;;;5017709;28;20528;-67
2021/08/04 09:10:56;;;;;;;8.02;3.60;;;25.10;58.60;;;;;;5021272;28;20400;-67
2021/08/04 09:13:32;;;;;;;4.05;3.30;;;25.10;58.40;;;;;;5019681;28;20103;-67
2021/08/04 09:16:11;;;;;;;4.72;2.83;;;25.10;58.40;;;;;;5019446;28;20084;-67
2021/08/04 09:18:44;;;;;;;5.63;3.63;;;25.10;58.30;;;;;;5019485;28;20482;-66
2021/08/04 09:21:12;;;;;;;3.35;2.65;;;25.10;58.40;;;;;;5020094;28;20137;-63
2021/08/04 09:23:53;;;;;;;3.78;2.83;;;25.10;58.50;;;;;;5020033;28;20139;-67
2021/08/04 09:26:23;;;;;;;3.55;3.15;;;25.10;58.40;;;;;;5019672;28;20045;-66
2021/08/04 09:29:05;;;;;;;5.18;3.03;;;25.10;58.40;;;;;;5020366;28;20076;-66
2021/08/04 09:31:48;;;;;;;3.00;2.70;;;25.10;58.20;;;;;;5017519;28;20065;-67
2021/08/04 09:34:31;;;;;;;3.30;3.00;;;25.20;58.00;;;;;;5023267;28;20053;-67
2021/08/04 09:37:17;;;;;;;5.13;2.50;;;25.20;57.90;;;;;;5019679;28;20056;-66
2021/08/04 09:39:55;;;;;;;3.53;2.83;;;25.20;58.00;;;;;;5018478;28;20053;-69
2021/08/04 09:42:44;;;;;;;3.90;3.33;;;25.30;58.00;;;;;;5019512;28;20049;-64
2021/08/04 09:45:13;;;;;;;3.30;3.00;;;25.30;58.10;;;;;;5024208;28;20122;-67
2021/08/04 09:48:01;;;;;;;8.02;3.30;;;25.30;57.80;;;;;;5020645;28;20562;-67
2021/08/04 09:50:48;;;;;;;5.35;2.83;;;25.40;57.70;;;;;;5017954;28;20081;-67
2021/08/04 09:53:25;;;;;;;3.70;3.22;;;25.40;57.50;;;;;;5023778;28;20045;-68
2021/08/04 09:56:06;;;;;;;3.38;3.13;;;25.40;57.30;;;;;;5022349;28;20502;-67
2021/08/04 09:58:37;;;;;;;3.40;2.88;;;25.40;57.40;;;;;;5017770;28;20079;-67
2021/08/04 10:01:12;;;;;;;3.08;2.60;;;25.40;57.50;;;;;;5020943;28;20061;-68
2021/08/04 10:04:04;;;;;;;3.70;2.78;;;25.40;57.60;;;;;;5015776;28;20049;-67
2021/08/04 10:06:44;;;;;;;4.78;3.33;;;25.40;57.60;;;;;;5017309;28;20061;-67
2021/08/04 10:09:28;;;;;;;3.50;3.20;;;25.40;57.80;;;;;;5021093;28;20564;-67
2021/08/04 10:12:05;;;;;;;3.88;3.10;;;25.40;57.80;;;;;;5023849;28;20038;-68
2021/08/04 10:14:36;;;;;;;3.50;3.05;;;25.40;57.80;;;;;;5022971;28;20740;-67
2021/08/04 10:17:15;;;;;;;4.03;2.35;;;25.40;57.60;;;;;;5020111;28;20049;-67
2021/08/04 10:19:49;;;;;;;3.53;2.72;;;25.40;57.60;;;;;;5022087;28;20042;-67
2021/08/04 10:22:24;;;;;;;3.30;2.88;;;25.40;57.50;;;;;;5019371;28;20085;-67
2021/08/04 10:24:56;;;;;;;8.93;3.10;;;25.50;57.50;;;;;;5018634;28;20120;-67
2021/08/04 10:27:31;;;;;;;2.80;2.60;;;25.50;57.50;;;;;;5024958;28;20538;-66
2021/08/04 10:29:59;;;;;;;3.33;2.85;;;25.50;57.60;;;;;;5019814;28;20132;-62
2021/08/04 10:32:34;;;;;;;3.17;2.78;;;25.60;57.70;;;;;;5013807;28;20088;-62
2021/08/04 10:35:04;;;;;;;3.10;2.72;;;25.60;57.80;;;;;;5018382;28;20051;-62
2021/08/04 10:40:30;;;;;;;4.53;3.03;;;25.60;57.80;;;;;;5018266;28;20042;-68
2021/08/04 10:42:58;;;;;;;2.63;2.33;;;25.60;57.70;;;;;;5028736;28;20482;-63
2021/08/04 10:45:29;;;;;;;5.38;2.47;;;25.70;57.80;;;;;;5018066;28;20381;-69
2021/08/04 10:48:23;;;;;;;4.60;3.08;;;25.70;57.80;;;;;;5015597;28;20129;-68
2021/08/04 10:51:10;;;;;;;3.25;2.65;;;25.70;57.50;;;;;;5020899;28;20125;-68
2021/08/04 10:54:12;;;;;;;2.92;2.70;;;25.70;57.30;;;;;;5020537;28;20751;-66
2021/08/04 10:57:06;;;;;;;7.30;2.50;;;25.70;57.60;;;;;;5018821;28;20049;-65
2021/08/04 10:59:35;;;;;;;5.07;2.60;;;25.70;57.60;;;;;;5018194;28;20048;-70
2021/08/04 11:02:26;;;;;;;3.65;2.70;;;25.80;57.30;;;;;;5016140;28;20128;-74
2021/08/04 11:04:54;;;;;;;3.13;2.58;;;25.80;57.20;;;;;;5006169;28;20053;-72
2021/08/04 11:07:22;;;;;;;2.28;2.08;;;25.80;57.10;;;;;;5017754;28;20173;-66
2021/08/04 11:09:56;;;;;;;6.88;2.95;;;25.80;57.30;;;;;;5021917;28;20128;-70
2021/08/04 11:12:43;;;;;;;2.38;2.17;;;25.80;57.40;;;;;;5018388;28;20406;-67
2021/08/04 11:15:29;;;;;;;3.97;2.30;;;25.80;57.40;;;;;;5014800;28;20060;-66
2021/08/04 11:18:09;;;;;;;3.05;2.30;;;25.80;57.40;;;;;;5015360;28;20088;-65
2021/08/04 11:20:58;;;;;;;4.50;2.78;;;25.80;57.20;;;;;;5014702;28;20085;-65
2021/08/04 11:23:45;;;;;;;4.80;2.28;;;25.80;57.20;;;;;;5017958;28;20132;-64
2021/08/04 11:26:30;;;;;;;4.40;2.40;;;25.80;57.20;;;;;;5023476;28;20045;-66
2021/08/04 11:28:58;;;;;;;3.42;2.42;;;25.80;57.10;;;;;;5020779;28;20077;-69
2021/08/04 11:31:25;;;;;;;2.70;2.22;;;25.80;56.50;;;;;;5015895;28;20176;-69
2021/08/04 11:33:55;;;;;;;4.60;2.13;;;25.80;55.90;;;;;;5017685;28;20041;-69
2021/08/04 11:36:26;;;;;;;5.13;2.25;;;25.80;55.20;;;;;;5022760;28;20065;-70
2021/08/04 11:39:04;;;;;;;2.63;2.30;;;25.80;54.60;;;;;;5021520;28;20438;-70
2021/08/04 11:41:35;;;;;;;6.22;2.17;;;25.80;54.10;;;;;;5017328;28;20041;-69
2021/08/04 11:44:26;;;;;;;2.00;1.85;;;25.80;53.90;;;;;;5022864;28;20112;-70
2021/08/04 11:47:04;;;;;;;4.35;2.20;;;25.80;53.60;;;;;;5010920;28;20103;-69
2021/08/04 11:49:33;;;;;;;5.00;2.35;;;25.90;53.80;;;;;;5022951;28;20132;-68
2021/08/04 11:52:11;;;;;;;3.35;2.40;;;25.80;53.70;;;;;;5038432;28;20058;-68
2021/08/04 11:54:49;;;;;;;2.13;1.98;;;25.80;53.30;;;;;;5018677;28;20152;-69
2021/08/04 11:57:28;;;;;;;3.90;2.03;;;25.80;53.40;;;;;;5024629;28;20044;-69
2021/08/04 11:59:58;;;;;;;3.05;1.88;;;25.90;53.20;;;;;;5017914;28;20112;-69
2021/08/04 12:02:30;;;;;;;4.43;1.70;;;25.90;53.00;;;;;;5018498;28;20132;-69
2021/08/04 12:04:59;;;;;;;2.13;1.80;;;25.90;52.50;;;;;;5018098;28;20060;-69
2021/08/04 12:07:29;;;;;;;2.22;2.00;;;26.00;52.10;;;;;;5018075;28;20115;-67
2021/08/04 12:09:59;;;;;;;2.85;2.00;;;26.00;52.60;;;;;;5020227;28;20144;-72
2021/08/04 12:12:27;;;;;;;;;;;26.00;52.40;;;;;;5020316;28;20083;-64
2021/08/04 12:14:55;;;;;;;3.22;1.70;;;26.00;52.50;;;;;;5019585;28;19929;-71
2021/08/04 12:17:31;;;;;;;1.50;1.40;;;26.00;52.60;;;;;;5020341;28;20096;-63
2021/08/04 12:20:20;;;;;;;2.05;1.70;;;26.00;52.20;;;;;;5018279;28;20056;-73
2021/08/04 12:22:59;;;;;;;5.40;1.20;;;26.00;51.30;;;;;;5016778;28;20088;-70
2021/08/04 12:25:28;;;;;;;1.75;1.52;;;26.00;51.50;;;;;;5026471;28;20795;-68
2021/08/04 12:27:59;;;;;;;2.20;1.27;;;25.90;51.30;;;;;;5019165;28;20460;-67
2021/08/04 12:30:32;;;;;;;1.73;1.30;;;25.90;51.10;;;;;;5017247;28;20061;-67
2021/08/04 12:33:18;;;;;;;1.33;1.23;;;25.90;51.30;;;;;;5019784;28;20045;-74
2021/08/04 12:36:04;;;;;;;2.55;1.45;;;25.90;51.40;;;;;;5021474;28;20083;-77
2021/08/04 12:38:48;;;;;;;2.97;1.90;;;25.90;51.60;;;;;;5015923;28;20057;-69
2021/08/04 12:41:19;;;;;;;2.17;1.60;;;25.90;51.80;;;;;;5019786;28;20065;-65
2021/08/04 12:43:47;;;;;;;1.50;1.40;;;25.90;52.10;;;;;;5019836;28;20055;-63
2021/08/04 12:46:15;;;;;;;2.10;1.35;;;25.90;52.20;;;;;;5017970;28;20221;-70
2021/08/04 12:48:48;;;;;;;1.48;1.35;;;25.90;52.10;;;;;;5018204;28;20129;-70
2021/08/04 12:51:22;;;;;;;3.22;1.55;;;26.00;51.80;;;;;;5014890;28;20049;-70
2021/08/04 12:54:02;;;;;;;1.50;1.40;;;26.00;51.90;;;;;;5015787;28;20438;-65
2021/08/04 12:56:36;;;;;;;3.72;1.63;;;25.90;52.00;;;;;;5016631;28;20084;-70
2021/08/04 12:59:12;;;;;;;1.45;1.35;;;25.80;51.60;;;;;;5018536;28;20041;-66
2021/08/04 13:01:42;;;;;;;1.30;1.20;;;25.70;52.10;;;;;;5015604;28;20140;-68
2021/08/04 13:04:29;;;;;;;1.38;1.25;;;25.60;53.20;;;;;;5015316;28;20049;-69
2021/08/04 13:06:58;;;;;;;1.55;1.42;;;25.40;53.30;;;;;;5018622;28;20088;-69
2021/08/04 13:09:29;;;;;;;1.80;1.70;;;25.30;53.40;;;;;;5014373;28;20084;-66
2021/08/04 13:12:18;;;;;;;1.50;1.40;;;25.20;53.70;;;;;;5017461;28;20454;-66